sensor_id;sensor_type;location;lat;lon;timestamp;P1;durP1;ratioP1;P2;durP2;ratioP2
19673;SDS011;9986;50.610;7.230;2022-12-16T00:02:11;33.90;;;18.40;;
19673;SDS011;9986;50.610;7.230;2022-12-16T00:04:49;35.83;;;17.93;;
19673;SDS011;9986;50.610;7.230;2022-12-16T00:07:28;36.90;;;20.40;;
19673;SDS011;9986;50.610;7.230;2022-12-16T00:10:11;30.93;;;17.73;;
19673;SDS011;9986;50.610;7.230;2022-12-16T00:12:49;30.20;;;17.27;;
19673;SDS011;9986;50.610;7.230;2022-12-16T00:15:29;34.73;;;19.07;;
19673;SDS011;9986;50.610;7.230;2022-12-16T00:18:07;30.17;;;16.33;;
19673;SDS011;9986;50.610;7.230;2022-12-16T00:20:45;30.43;;;17.43;;
19673;SDS011;9986;50.610;7.230;2022-12-16T00:23:33;29.20;;;17.70;;
19673;SDS011;9986;50.610;7.230;2022-12-16T00:26:11;33.87;;;17.90;;
19673;SDS011;9986;50.610;7.230;2022-12-16T00:28:49;31.03;;;17.30;;
19673;SDS011;9986;50.610;7.230;2022-12-16T00:31:27;30.27;;;17.53;;
19673;SDS011;9986;50.610;7.230;2022-12-16T00:34:06;33.57;;;19.03;;
19673;SDS011;9986;50.610;7.230;2022-12-16T00:36:44;29.93;;;17.33;;
19673;SDS011;9986;50.610;7.230;2022-12-16T00:39:24;30.13;;;16.53;;
19673;SDS011;9986;50.610;7.230;2022-12-16T00:42:02;32.77;;;18.43;;
19673;SDS011;9986;50.610;7.230;2022-12-16T00:44:40;34.13;;;19.17;;
19673;SDS011;9986;50.610;7.230;2022-12-16T00:50:00;31.67;;;17.87;;
19673;SDS011;9986;50.610;7.230;2022-12-16T00:52:38;32.57;;;19.27;;
19673;SDS011;9986;50.610;7.230;2022-12-16T00:55:17;34.33;;;20.07;;
19673;SDS011;9986;50.610;7.230;2022-12-16T00:57:55;31.10;;;17.50;;
19673;SDS011;9986;50.610;7.230;2022-12-16T01:00:36;32.83;;;18.20;;
19673;SDS011;9986;50.610;7.230;2022-12-16T01:03:13;29.07;;;17.70;;
19673;SDS011;9986;50.610;7.230;2022-12-16T01:05:51;30.93;;;19.20;;
19673;SDS011;9986;50.610;7.230;2022-12-16T01:08:29;33.30;;;17.80;;
19673;SDS011;9986;50.610;7.230;2022-12-16T01:11:08;29.47;;;18.43;;
19673;SDS011;9986;50.610;7.230;2022-12-16T01:13:48;35.37;;;19.13;;
19673;SDS011;9986;50.610;7.230;2022-12-16T01:16:28;30.17;;;16.97;;
19673;SDS011;9986;50.610;7.230;2022-12-16T01:21:47;33.30;;;18.67;;
19673;SDS011;9986;50.610;7.230;2022-12-16T01:24:27;37.63;;;19.50;;
19673;SDS011;9986;50.610;7.230;2022-12-16T01:29:34;33.27;;;17.50;;
19673;SDS011;9986;50.610;7.230;2022-12-16T01:32:12;30.73;;;18.07;;
19673;SDS011;9986;50.610;7.230;2022-12-16T01:34:50;30.83;;;17.87;;
19673;SDS011;9986;50.610;7.230;2022-12-16T01:37:28;27.80;;;18.40;;
19673;SDS011;9986;50.610;7.230;2022-12-16T01:40:10;29.70;;;17.70;;
19673;SDS011;9986;50.610;7.230;2022-12-16T01:42:56;31.47;;;17.87;;
19673;SDS011;9986;50.610;7.230;2022-12-16T01:45:35;35.33;;;18.47;;
19673;SDS011;9986;50.610;7.230;2022-12-16T01:50:50;29.97;;;18.00;;
19673;SDS011;9986;50.610;7.230;2022-12-16T01:56:10;30.27;;;17.13;;
19673;SDS011;9986;50.610;7.230;2022-12-16T01:58:49;29.23;;;17.33;;
19673;SDS011;9986;50.610;7.230;2022-12-16T02:01:27;32.57;;;17.17;;
19673;SDS011;9986;50.610;7.230;2022-12-16T02:04:00;31.83;;;18.27;;
19673;SDS011;9986;50.610;7.230;2022-12-16T02:06:38;29.97;;;17.13;;
19673;SDS011;9986;50.610;7.230;2022-12-16T02:09:16;27.90;;;17.00;;
19673;SDS011;9986;50.610;7.230;2022-12-16T02:14:55;29.80;;;17.37;;
19673;SDS011;9986;50.610;7.230;2022-12-16T02:17:37;35.33;;;17.40;;
19673;SDS011;9986;50.610;7.230;2022-12-16T02:26:48;28.60;;;17.37;;
19673;SDS011;9986;50.610;7.230;2022-12-16T02:29:36;28.83;;;17.63;;
19673;SDS011;9986;50.610;7.230;2022-12-16T02:32:22;30.77;;;17.83;;
19673;SDS011;9986;50.610;7.230;2022-12-16T02:35:02;30.03;;;16.97;;
19673;SDS011;9986;50.610;7.230;2022-12-16T02:37:43;29.47;;;16.80;;
19673;SDS011;9986;50.610;7.230;2022-12-16T02:40:25;34.80;;;17.57;;
19673;SDS011;9986;50.610;7.230;2022-12-16T02:43:05;32.13;;;16.80;;
19673;SDS011;9986;50.610;7.230;2022-12-16T02:45:43;27.53;;;17.03;;
19673;SDS011;9986;50.610;7.230;2022-12-16T02:50:58;29.90;;;17.83;;
19673;SDS011;9986;50.610;7.230;2022-12-16T02:53:36;27.27;;;16.13;;
19673;SDS011;9986;50.610;7.230;2022-12-16T02:56:19;22.50;;;15.60;;
19673;SDS011;9986;50.610;7.230;2022-12-16T03:01:45;27.43;;;16.30;;
19673;SDS011;9986;50.610;7.230;2022-12-16T03:04:26;30.33;;;17.37;;
19673;SDS011;9986;50.610;7.230;2022-12-16T03:07:05;28.40;;;16.13;;
19673;SDS011;9986;50.610;7.230;2022-12-16T03:09:44;26.60;;;16.27;;
19673;SDS011;9986;50.610;7.230;2022-12-16T03:12:23;28.57;;;17.40;;
19673;SDS011;9986;50.610;7.230;2022-12-16T03:15:02;25.30;;;16.20;;
19673;SDS011;9986;50.610;7.230;2022-12-16T03:17:40;26.40;;;17.17;;
19673;SDS011;9986;50.610;7.230;2022-12-16T03:22:51;29.33;;;17.37;;
19673;SDS011;9986;50.610;7.230;2022-12-16T03:25:30;28.67;;;16.80;;
19673;SDS011;9986;50.610;7.230;2022-12-16T03:33:18;27.63;;;15.93;;
19673;SDS011;9986;50.610;7.230;2022-12-16T03:35:58;25.87;;;15.80;;
19673;SDS011;9986;50.610;7.230;2022-12-16T03:38:37;24.60;;;15.30;;
19673;SDS011;9986;50.610;7.230;2022-12-16T03:41:17;28.47;;;16.47;;
19673;SDS011;9986;50.610;7.230;2022-12-16T03:44:01;30.07;;;16.17;;
19673;SDS011;9986;50.610;7.230;2022-12-16T03:46:43;27.00;;;15.57;;
19673;SDS011;9986;50.610;7.230;2022-12-16T03:49:21;25.97;;;14.43;;
19673;SDS011;9986;50.610;7.230;2022-12-16T03:51:58;25.63;;;16.00;;
19673;SDS011;9986;50.610;7.230;2022-12-16T03:54:36;23.33;;;14.30;;
19673;SDS011;9986;50.610;7.230;2022-12-16T04:02:20;24.03;;;15.53;;
19673;SDS011;9986;50.610;7.230;2022-12-16T04:04:58;20.97;;;14.27;;
19673;SDS011;9986;50.610;7.230;2022-12-16T04:07:36;26.47;;;15.27;;
19673;SDS011;9986;50.610;7.230;2022-12-16T04:10:14;21.50;;;13.40;;
19673;SDS011;9986;50.610;7.230;2022-12-16T04:12:51;22.17;;;14.00;;
19673;SDS011;9986;50.610;7.230;2022-12-16T04:15:39;25.33;;;14.80;;
19673;SDS011;9986;50.610;7.230;2022-12-16T04:18:17;21.33;;;14.37;;
19673;SDS011;9986;50.610;7.230;2022-12-16T04:20:55;26.60;;;15.33;;
19673;SDS011;9986;50.610;7.230;2022-12-16T04:23:33;25.33;;;15.37;;
19673;SDS011;9986;50.610;7.230;2022-12-16T04:26:12;25.37;;;13.77;;
19673;SDS011;9986;50.610;7.230;2022-12-16T04:28:50;22.07;;;15.10;;
19673;SDS011;9986;50.610;7.230;2022-12-16T04:31:27;24.67;;;14.60;;
19673;SDS011;9986;50.610;7.230;2022-12-16T04:36:34;24.87;;;15.10;;
19673;SDS011;9986;50.610;7.230;2022-12-16T04:39:12;25.10;;;15.60;;
19673;SDS011;9986;50.610;7.230;2022-12-16T04:41:51;24.07;;;14.03;;
19673;SDS011;9986;50.610;7.230;2022-12-16T04:44:40;26.37;;;14.87;;
19673;SDS011;9986;50.610;7.230;2022-12-16T04:47:17;23.17;;;14.57;;
19673;SDS011;9986;50.610;7.230;2022-12-16T04:49:55;36.13;;;20.03;;
19673;SDS011;9986;50.610;7.230;2022-12-16T04:52:33;24.10;;;14.70;;
19673;SDS011;9986;50.610;7.230;2022-12-16T04:57:58;25.23;;;14.47;;
19673;SDS011;9986;50.610;7.230;2022-12-16T05:00:36;20.90;;;14.20;;
19673;SDS011;9986;50.610;7.230;2022-12-16T05:03:14;25.87;;;15.03;;
19673;SDS011;9986;50.610;7.230;2022-12-16T05:05:51;21.03;;;14.27;;
19673;SDS011;9986;50.610;7.230;2022-12-16T05:11:18;21.13;;;12.60;;
19673;SDS011;9986;50.610;7.230;2022-12-16T05:14:02;21.40;;;13.77;;
19673;SDS011;9986;50.610;7.230;2022-12-16T05:16:40;23.87;;;14.27;;
19673;SDS011;9986;50.610;7.230;2022-12-16T05:19:17;24.50;;;14.10;;
19673;SDS011;9986;50.610;7.230;2022-12-16T05:24:42;20.33;;;13.13;;
19673;SDS011;9986;50.610;7.230;2022-12-16T05:27:20;21.77;;;13.13;;
19673;SDS011;9986;50.610;7.230;2022-12-16T05:37:46;25.80;;;14.37;;
19673;SDS011;9986;50.610;7.230;2022-12-16T05:43:10;22.70;;;15.70;;
19673;SDS011;9986;50.610;7.230;2022-12-16T05:45:55;19.63;;;13.97;;
19673;SDS011;9986;50.610;7.230;2022-12-16T05:48:33;24.43;;;15.87;;
19673;SDS011;9986;50.610;7.230;2022-12-16T05:51:10;26.30;;;14.10;;
19673;SDS011;9986;50.610;7.230;2022-12-16T05:53:48;22.80;;;14.50;;
19673;SDS011;9986;50.610;7.230;2022-12-16T05:56:26;23.60;;;15.20;;
19673;SDS011;9986;50.610;7.230;2022-12-16T05:59:04;23.63;;;15.73;;
19673;SDS011;9986;50.610;7.230;2022-12-16T06:01:42;28.00;;;16.13;;
19673;SDS011;9986;50.610;7.230;2022-12-16T06:04:19;24.37;;;14.13;;
19673;SDS011;9986;50.610;7.230;2022-12-16T06:06:57;22.30;;;14.47;;
19673;SDS011;9986;50.610;7.230;2022-12-16T06:09:41;22.37;;;14.00;;
19673;SDS011;9986;50.610;7.230;2022-12-16T06:12:19;21.33;;;14.20;;
19673;SDS011;9986;50.610;7.230;2022-12-16T06:17:45;24.47;;;15.90;;
19673;SDS011;9986;50.610;7.230;2022-12-16T06:23:11;23.30;;;15.87;;
19673;SDS011;9986;50.610;7.230;2022-12-16T06:25:48;23.90;;;14.73;;
19673;SDS011;9986;50.610;7.230;2022-12-16T06:28:28;21.93;;;14.30;;
19673;SDS011;9986;50.610;7.230;2022-12-16T06:31:12;22.53;;;14.10;;
19673;SDS011;9986;50.610;7.230;2022-12-16T06:33:50;22.07;;;14.60;;
19673;SDS011;9986;50.610;7.230;2022-12-16T06:39:15;19.43;;;13.57;;
19673;SDS011;9986;50.610;7.230;2022-12-16T06:42:04;23.73;;;15.00;;
19673;SDS011;9986;50.610;7.230;2022-12-16T06:44:44;21.60;;;14.53;;
19673;SDS011;9986;50.610;7.230;2022-12-16T06:47:22;23.53;;;15.47;;
19673;SDS011;9986;50.610;7.230;2022-12-16T06:49:59;22.20;;;15.67;;
19673;SDS011;9986;50.610;7.230;2022-12-16T06:52:37;21.10;;;14.93;;
19673;SDS011;9986;50.610;7.230;2022-12-16T06:55:22;27.40;;;15.20;;
19673;SDS011;9986;50.610;7.230;2022-12-16T07:00:48;25.13;;;15.10;;
19673;SDS011;9986;50.610;7.230;2022-12-16T07:03:26;25.93;;;15.00;;
19673;SDS011;9986;50.610;7.230;2022-12-16T07:06:05;22.17;;;14.90;;
19673;SDS011;9986;50.610;7.230;2022-12-16T07:08:43;24.47;;;14.17;;
19673;SDS011;9986;50.610;7.230;2022-12-16T07:14:07;22.17;;;14.30;;
19673;SDS011;9986;50.610;7.230;2022-12-16T07:16:45;26.77;;;16.53;;
19673;SDS011;9986;50.610;7.230;2022-12-16T07:19:23;26.10;;;14.60;;
19673;SDS011;9986;50.610;7.230;2022-12-16T07:22:06;22.80;;;14.53;;
19673;SDS011;9986;50.610;7.230;2022-12-16T07:24:52;25.67;;;14.07;;
19673;SDS011;9986;50.610;7.230;2022-12-16T07:30:08;26.57;;;17.23;;
19673;SDS011;9986;50.610;7.230;2022-12-16T07:32:52;24.93;;;15.47;;
19673;SDS011;9986;50.610;7.230;2022-12-16T07:35:42;21.57;;;14.33;;
19673;SDS011;9986;50.610;7.230;2022-12-16T07:38:19;27.20;;;16.10;;
19673;SDS011;9986;50.610;7.230;2022-12-16T07:40:59;23.30;;;15.57;;
19673;SDS011;9986;50.610;7.230;2022-12-16T07:43:37;23.70;;;15.13;;
19673;SDS011;9986;50.610;7.230;2022-12-16T07:46:21;21.80;;;14.80;;
19673;SDS011;9986;50.610;7.230;2022-12-16T07:48:59;23.13;;;14.13;;
19673;SDS011;9986;50.610;7.230;2022-12-16T07:54:31;22.00;;;13.57;;
19673;SDS011;9986;50.610;7.230;2022-12-16T07:57:14;22.07;;;14.93;;
19673;SDS011;9986;50.610;7.230;2022-12-16T08:02:46;24.13;;;15.27;;
19673;SDS011;9986;50.610;7.230;2022-12-16T08:05:28;18.20;;;13.13;;
19673;SDS011;9986;50.610;7.230;2022-12-16T08:08:05;25.37;;;14.07;;
19673;SDS011;9986;50.610;7.230;2022-12-16T08:10:49;20.27;;;13.20;;
19673;SDS011;9986;50.610;7.230;2022-12-16T08:16:14;27.73;;;16.50;;
19673;SDS011;9986;50.610;7.230;2022-12-16T08:18:51;22.80;;;14.47;;
19673;SDS011;9986;50.610;7.230;2022-12-16T08:21:31;24.70;;;14.53;;
19673;SDS011;9986;50.610;7.230;2022-12-16T08:29:31;20.60;;;13.53;;
19673;SDS011;9986;50.610;7.230;2022-12-16T08:35:08;23.67;;;13.63;;
19673;SDS011;9986;50.610;7.230;2022-12-16T08:40:33;19.47;;;13.27;;
19673;SDS011;9986;50.610;7.230;2022-12-16T08:45:49;21.97;;;13.27;;
19673;SDS011;9986;50.610;7.230;2022-12-16T08:48:28;20.83;;;13.20;;
19673;SDS011;9986;50.610;7.230;2022-12-16T08:51:06;18.73;;;13.23;;
19673;SDS011;9986;50.610;7.230;2022-12-16T08:53:50;21.03;;;13.73;;
19673;SDS011;9986;50.610;7.230;2022-12-16T08:56:28;23.57;;;14.47;;
19673;SDS011;9986;50.610;7.230;2022-12-16T09:01:53;24.00;;;15.23;;
19673;SDS011;9986;50.610;7.230;2022-12-16T09:04:37;23.70;;;14.20;;
19673;SDS011;9986;50.610;7.230;2022-12-16T09:07:18;21.03;;;13.30;;
19673;SDS011;9986;50.610;7.230;2022-12-16T09:09:56;23.07;;;12.70;;
19673;SDS011;9986;50.610;7.230;2022-12-16T09:12:33;24.10;;;13.73;;
19673;SDS011;9986;50.610;7.230;2022-12-16T09:17:52;21.33;;;13.33;;
19673;SDS011;9986;50.610;7.230;2022-12-16T09:20:30;19.93;;;13.30;;
19673;SDS011;9986;50.610;7.230;2022-12-16T09:23:08;20.63;;;12.33;;
19673;SDS011;9986;50.610;7.230;2022-12-16T09:28:25;18.97;;;12.77;;
19673;SDS011;9986;50.610;7.230;2022-12-16T09:31:02;21.43;;;13.80;;
19673;SDS011;9986;50.610;7.230;2022-12-16T09:33:40;23.90;;;13.90;;
19673;SDS011;9986;50.610;7.230;2022-12-16T09:39:05;18.10;;;12.10;;
19673;SDS011;9986;50.610;7.230;2022-12-16T09:44:35;20.43;;;12.70;;
19673;SDS011;9986;50.610;7.230;2022-12-16T09:47:18;18.37;;;12.37;;
19673;SDS011;9986;50.610;7.230;2022-12-16T09:49:57;20.47;;;11.90;;
19673;SDS011;9986;50.610;7.230;2022-12-16T09:55:27;17.90;;;12.93;;
19673;SDS011;9986;50.610;7.230;2022-12-16T09:58:05;20.10;;;13.47;;
19673;SDS011;9986;50.610;7.230;2022-12-16T10:03:33;23.30;;;14.73;;
19673;SDS011;9986;50.610;7.230;2022-12-16T10:06:20;19.27;;;13.17;;
19673;SDS011;9986;50.610;7.230;2022-12-16T10:09:01;21.43;;;14.83;;
19673;SDS011;9986;50.610;7.230;2022-12-16T10:16:55;19.97;;;13.90;;
19673;SDS011;9986;50.610;7.230;2022-12-16T10:19:35;22.17;;;13.80;;
19673;SDS011;9986;50.610;7.230;2022-12-16T10:22:14;21.40;;;13.33;;
19673;SDS011;9986;50.610;7.230;2022-12-16T10:24:54;22.00;;;13.03;;
19673;SDS011;9986;50.610;7.230;2022-12-16T10:30:20;19.93;;;13.47;;
19673;SDS011;9986;50.610;7.230;2022-12-16T10:32:58;26.27;;;13.43;;
19673;SDS011;9986;50.610;7.230;2022-12-16T10:35:36;20.07;;;12.77;;
19673;SDS011;9986;50.610;7.230;2022-12-16T10:38:17;22.63;;;13.17;;
19673;SDS011;9986;50.610;7.230;2022-12-16T10:40:54;21.57;;;13.13;;
19673;SDS011;9986;50.610;7.230;2022-12-16T10:46:11;20.10;;;13.13;;
19673;SDS011;9986;50.610;7.230;2022-12-16T10:48:51;26.80;;;14.23;;
19673;SDS011;9986;50.610;7.230;2022-12-16T10:54:24;26.73;;;14.43;;
19673;SDS011;9986;50.610;7.230;2022-12-16T10:57:07;22.67;;;13.73;;
19673;SDS011;9986;50.610;7.230;2022-12-16T10:59:44;23.10;;;13.97;;
19673;SDS011;9986;50.610;7.230;2022-12-16T11:02:26;26.47;;;14.10;;
19673;SDS011;9986;50.610;7.230;2022-12-16T11:05:06;21.90;;;13.43;;
19673;SDS011;9986;50.610;7.230;2022-12-16T11:10:59;22.70;;;14.33;;
19673;SDS011;9986;50.610;7.230;2022-12-16T11:13:39;20.27;;;12.97;;
19673;SDS011;9986;50.610;7.230;2022-12-16T11:16:18;23.87;;;14.73;;
19673;SDS011;9986;50.610;7.230;2022-12-16T11:18:56;24.67;;;14.50;;
19673;SDS011;9986;50.610;7.230;2022-12-16T11:21:34;23.23;;;15.10;;
19673;SDS011;9986;50.610;7.230;2022-12-16T11:26:52;24.93;;;15.10;;
19673;SDS011;9986;50.610;7.230;2022-12-16T11:29:29;20.70;;;14.13;;
19673;SDS011;9986;50.610;7.230;2022-12-16T11:32:09;24.17;;;14.13;;
19673;SDS011;9986;50.610;7.230;2022-12-16T11:34:49;26.60;;;15.23;;
19673;SDS011;9986;50.610;7.230;2022-12-16T11:37:29;32.53;;;16.77;;
19673;SDS011;9986;50.610;7.230;2022-12-16T11:40:11;26.33;;;15.03;;
19673;SDS011;9986;50.610;7.230;2022-12-16T11:42:49;24.90;;;14.93;;
19673;SDS011;9986;50.610;7.230;2022-12-16T11:45:27;22.23;;;15.30;;
19673;SDS011;9986;50.610;7.230;2022-12-16T11:48:06;26.23;;;13.57;;
19673;SDS011;9986;50.610;7.230;2022-12-16T11:50:47;21.57;;;13.50;;
19673;SDS011;9986;50.610;7.230;2022-12-16T11:53:30;25.10;;;14.77;;
19673;SDS011;9986;50.610;7.230;2022-12-16T11:56:05;22.43;;;13.93;;
19673;SDS011;9986;50.610;7.230;2022-12-16T11:58:50;27.53;;;15.50;;
19673;SDS011;9986;50.610;7.230;2022-12-16T12:01:35;26.13;;;14.20;;
19673;SDS011;9986;50.610;7.230;2022-12-16T12:04:14;23.97;;;14.03;;
19673;SDS011;9986;50.610;7.230;2022-12-16T12:06:58;28.60;;;14.77;;
19673;SDS011;9986;50.610;7.230;2022-12-16T12:09:46;23.07;;;15.30;;
19673;SDS011;9986;50.610;7.230;2022-12-16T12:12:34;23.03;;;14.40;;
19673;SDS011;9986;50.610;7.230;2022-12-16T12:15:16;25.77;;;15.33;;
19673;SDS011;9986;50.610;7.230;2022-12-16T12:20:45;21.57;;;13.93;;
19673;SDS011;9986;50.610;7.230;2022-12-16T12:26:14;26.10;;;16.43;;
19673;SDS011;9986;50.610;7.230;2022-12-16T12:28:55;24.07;;;13.73;;
19673;SDS011;9986;50.610;7.230;2022-12-16T12:31:33;26.33;;;14.67;;
19673;SDS011;9986;50.610;7.230;2022-12-16T12:34:21;28.17;;;15.93;;
19673;SDS011;9986;50.610;7.230;2022-12-16T12:37:07;29.57;;;15.60;;
19673;SDS011;9986;50.610;7.230;2022-12-16T12:39:48;28.97;;;17.50;;
19673;SDS011;9986;50.610;7.230;2022-12-16T12:45:18;32.27;;;18.47;;
19673;SDS011;9986;50.610;7.230;2022-12-16T12:48:00;30.50;;;17.80;;
19673;SDS011;9986;50.610;7.230;2022-12-16T12:53:29;32.10;;;17.73;;
19673;SDS011;9986;50.610;7.230;2022-12-16T12:58:45;27.03;;;17.77;;
19673;SDS011;9986;50.610;7.230;2022-12-16T13:01:25;27.90;;;17.03;;
19673;SDS011;9986;50.610;7.230;2022-12-16T13:06:53;32.83;;;19.33;;
19673;SDS011;9986;50.610;7.230;2022-12-16T13:12:20;25.40;;;17.87;;
19673;SDS011;9986;50.610;7.230;2022-12-16T13:20:49;27.90;;;18.87;;
19673;SDS011;9986;50.610;7.230;2022-12-16T13:26:05;31.50;;;18.17;;
19673;SDS011;9986;50.610;7.230;2022-12-16T13:28:43;31.97;;;19.40;;
19673;SDS011;9986;50.610;7.230;2022-12-16T13:31:22;32.60;;;18.37;;
19673;SDS011;9986;50.610;7.230;2022-12-16T13:34:03;33.33;;;20.13;;
19673;SDS011;9986;50.610;7.230;2022-12-16T13:39:21;34.90;;;19.67;;
19673;SDS011;9986;50.610;7.230;2022-12-16T13:44:54;32.80;;;20.83;;
19673;SDS011;9986;50.610;7.230;2022-12-16T13:53:27;30.03;;;19.43;;
19673;SDS011;9986;50.610;7.230;2022-12-16T13:58:46;31.73;;;21.13;;
19673;SDS011;9986;50.610;7.230;2022-12-16T14:06:59;31.20;;;19.90;;
19673;SDS011;9986;50.610;7.230;2022-12-16T14:09:38;34.80;;;21.73;;
19673;SDS011;9986;50.610;7.230;2022-12-16T14:12:21;40.73;;;23.27;;
19673;SDS011;9986;50.610;7.230;2022-12-16T14:20:31;37.60;;;23.43;;
19673;SDS011;9986;50.610;7.230;2022-12-16T14:28:38;41.87;;;23.77;;
19673;SDS011;9986;50.610;7.230;2022-12-16T14:34:03;37.50;;;23.03;;
19673;SDS011;9986;50.610;7.230;2022-12-16T14:36:41;37.37;;;23.23;;
19673;SDS011;9986;50.610;7.230;2022-12-16T14:39:20;36.07;;;21.53;;
19673;SDS011;9986;50.610;7.230;2022-12-16T14:41:58;34.23;;;22.33;;
19673;SDS011;9986;50.610;7.230;2022-12-16T14:47:16;32.97;;;21.03;;
19673;SDS011;9986;50.610;7.230;2022-12-16T14:49:54;35.03;;;21.83;;
19673;SDS011;9986;50.610;7.230;2022-12-16T14:52:43;36.97;;;20.50;;
19673;SDS011;9986;50.610;7.230;2022-12-16T14:55:26;29.33;;;19.83;;
19673;SDS011;9986;50.610;7.230;2022-12-16T14:58:08;34.13;;;22.00;;
19673;SDS011;9986;50.610;7.230;2022-12-16T15:03:29;38.00;;;21.93;;
19673;SDS011;9986;50.610;7.230;2022-12-16T15:06:13;36.03;;;22.37;;
19673;SDS011;9986;50.610;7.230;2022-12-16T15:08:53;33.37;;;22.03;;
19673;SDS011;9986;50.610;7.230;2022-12-16T15:11:41;33.10;;;22.13;;
19673;SDS011;9986;50.610;7.230;2022-12-16T15:14:21;31.73;;;21.70;;
19673;SDS011;9986;50.610;7.230;2022-12-16T15:16:59;33.33;;;22.63;;
19673;SDS011;9986;50.610;7.230;2022-12-16T15:22:24;32.77;;;21.03;;
19673;SDS011;9986;50.610;7.230;2022-12-16T15:25:02;37.97;;;22.77;;
19673;SDS011;9986;50.610;7.230;2022-12-16T15:27:41;34.37;;;22.90;;
19673;SDS011;9986;50.610;7.230;2022-12-16T15:35:46;37.80;;;24.60;;
19673;SDS011;9986;50.610;7.230;2022-12-16T15:38:26;40.40;;;24.50;;
19673;SDS011;9986;50.610;7.230;2022-12-16T15:41:04;45.47;;;24.87;;
19673;SDS011;9986;50.610;7.230;2022-12-16T15:43:43;37.80;;;24.27;;
19673;SDS011;9986;50.610;7.230;2022-12-16T15:46:21;37.83;;;22.07;;
19673;SDS011;9986;50.610;7.230;2022-12-16T15:49:00;37.70;;;21.97;;
19673;SDS011;9986;50.610;7.230;2022-12-16T15:51:42;38.27;;;24.03;;
19673;SDS011;9986;50.610;7.230;2022-12-16T15:54:21;37.57;;;22.23;;
19673;SDS011;9986;50.610;7.230;2022-12-16T16:00:17;34.33;;;21.27;;
19673;SDS011;9986;50.610;7.230;2022-12-16T16:02:56;40.43;;;21.63;;
19673;SDS011;9986;50.610;7.230;2022-12-16T16:05:35;33.17;;;20.57;;
19673;SDS011;9986;50.610;7.230;2022-12-16T16:08:13;38.67;;;21.77;;
19673;SDS011;9986;50.610;7.230;2022-12-16T16:10:50;35.37;;;20.93;;
19673;SDS011;9986;50.610;7.230;2022-12-16T16:13:28;35.60;;;20.90;;
19673;SDS011;9986;50.610;7.230;2022-12-16T16:16:08;34.67;;;21.13;;
19673;SDS011;9986;50.610;7.230;2022-12-16T16:18:47;32.70;;;21.33;;
19673;SDS011;9986;50.610;7.230;2022-12-16T16:21:25;37.73;;;21.93;;
19673;SDS011;9986;50.610;7.230;2022-12-16T16:24:03;30.40;;;21.37;;
19673;SDS011;9986;50.610;7.230;2022-12-16T16:26:42;36.33;;;21.60;;
19673;SDS011;9986;50.610;7.230;2022-12-16T16:29:20;36.93;;;20.53;;
19673;SDS011;9986;50.610;7.230;2022-12-16T16:31:57;38.93;;;22.10;;
19673;SDS011;9986;50.610;7.230;2022-12-16T16:42:25;33.63;;;20.93;;
19673;SDS011;9986;50.610;7.230;2022-12-16T16:45:03;33.20;;;20.80;;
19673;SDS011;9986;50.610;7.230;2022-12-16T16:50:24;30.23;;;18.43;;
19673;SDS011;9986;50.610;7.230;2022-12-16T16:55:52;33.43;;;18.67;;
19673;SDS011;9986;50.610;7.230;2022-12-16T16:58:30;32.83;;;18.50;;
19673;SDS011;9986;50.610;7.230;2022-12-16T17:01:15;27.70;;;17.37;;
19673;SDS011;9986;50.610;7.230;2022-12-16T17:03:53;36.00;;;17.80;;
19673;SDS011;9986;50.610;7.230;2022-12-16T17:06:31;44.93;;;22.40;;
19673;SDS011;9986;50.610;7.230;2022-12-16T17:11:51;32.23;;;17.83;;
19673;SDS011;9986;50.610;7.230;2022-12-16T17:14:32;31.40;;;17.33;;
19673;SDS011;9986;50.610;7.230;2022-12-16T17:17:11;34.50;;;20.40;;
19673;SDS011;9986;50.610;7.230;2022-12-16T17:19:49;30.63;;;17.23;;
19673;SDS011;9986;50.610;7.230;2022-12-16T17:25:14;31.07;;;17.80;;
19673;SDS011;9986;50.610;7.230;2022-12-16T17:33:07;27.87;;;16.87;;
19673;SDS011;9986;50.610;7.230;2022-12-16T17:38:24;32.97;;;19.00;;
19673;SDS011;9986;50.610;7.230;2022-12-16T17:41:01;33.63;;;18.97;;
19673;SDS011;9986;50.610;7.230;2022-12-16T17:43:39;43.57;;;19.40;;
19673;SDS011;9986;50.610;7.230;2022-12-16T17:46:17;38.13;;;20.53;;
19673;SDS011;9986;50.610;7.230;2022-12-16T17:51:42;41.27;;;23.07;;
19673;SDS011;9986;50.610;7.230;2022-12-16T17:54:20;42.27;;;22.73;;
19673;SDS011;9986;50.610;7.230;2022-12-16T18:00:05;44.97;;;22.60;;
19673;SDS011;9986;50.610;7.230;2022-12-16T18:05:33;40.07;;;21.20;;
19673;SDS011;9986;50.610;7.230;2022-12-16T18:11:00;35.80;;;20.33;;
19673;SDS011;9986;50.610;7.230;2022-12-16T18:13:38;42.53;;;21.60;;
19673;SDS011;9986;50.610;7.230;2022-12-16T18:16:16;44.93;;;22.77;;
19673;SDS011;9986;50.610;7.230;2022-12-16T18:18:53;42.87;;;21.53;;
19673;SDS011;9986;50.610;7.230;2022-12-16T18:21:34;42.63;;;19.77;;
19673;SDS011;9986;50.610;7.230;2022-12-16T18:24:12;37.00;;;20.37;;
19673;SDS011;9986;50.610;7.230;2022-12-16T18:29:38;37.67;;;18.47;;
19673;SDS011;9986;50.610;7.230;2022-12-16T18:32:16;40.67;;;18.33;;
19673;SDS011;9986;50.610;7.230;2022-12-16T18:37:41;38.50;;;17.83;;
19673;SDS011;9986;50.610;7.230;2022-12-16T18:40:19;36.17;;;16.93;;
19673;SDS011;9986;50.610;7.230;2022-12-16T18:45:33;48.50;;;21.47;;
19673;SDS011;9986;50.610;7.230;2022-12-16T18:48:17;38.70;;;18.10;;
19673;SDS011;9986;50.610;7.230;2022-12-16T18:50:54;38.77;;;19.70;;
19673;SDS011;9986;50.610;7.230;2022-12-16T18:53:32;46.33;;;19.07;;
19673;SDS011;9986;50.610;7.230;2022-12-16T18:58:57;37.53;;;19.20;;
19673;SDS011;9986;50.610;7.230;2022-12-16T19:01:35;38.90;;;17.77;;
19673;SDS011;9986;50.610;7.230;2022-12-16T19:04:12;41.87;;;18.00;;
19673;SDS011;9986;50.610;7.230;2022-12-16T19:09:41;36.43;;;17.23;;
19673;SDS011;9986;50.610;7.230;2022-12-16T19:15:08;38.37;;;16.83;;
19673;SDS011;9986;50.610;7.230;2022-12-16T19:20:33;37.53;;;16.67;;
19673;SDS011;9986;50.610;7.230;2022-12-16T19:25:54;35.00;;;18.33;;
19673;SDS011;9986;50.610;7.230;2022-12-16T19:28:31;33.53;;;17.53;;
19673;SDS011;9986;50.610;7.230;2022-12-16T19:31:10;34.23;;;15.13;;
19673;SDS011;9986;50.610;7.230;2022-12-16T19:33:47;42.17;;;16.50;;
19673;SDS011;9986;50.610;7.230;2022-12-16T19:39:22;29.30;;;15.00;;
19673;SDS011;9986;50.610;7.230;2022-12-16T19:41:59;35.03;;;16.73;;
19673;SDS011;9986;50.610;7.230;2022-12-16T19:44:40;36.77;;;16.53;;
19673;SDS011;9986;50.610;7.230;2022-12-16T19:47:20;33.50;;;16.23;;
19673;SDS011;9986;50.610;7.230;2022-12-16T19:49:58;58.80;;;19.37;;
19673;SDS011;9986;50.610;7.230;2022-12-16T19:55:23;34.00;;;16.00;;
19673;SDS011;9986;50.610;7.230;2022-12-16T19:58:01;37.57;;;16.80;;
19673;SDS011;9986;50.610;7.230;2022-12-16T20:00:39;42.27;;;17.70;;
19673;SDS011;9986;50.610;7.230;2022-12-16T20:06:05;34.17;;;16.20;;
19673;SDS011;9986;50.610;7.230;2022-12-16T20:11:25;44.30;;;17.63;;
19673;SDS011;9986;50.610;7.230;2022-12-16T20:14:02;38.73;;;15.67;;
19673;SDS011;9986;50.610;7.230;2022-12-16T20:16:40;32.00;;;16.97;;
19673;SDS011;9986;50.610;7.230;2022-12-16T20:19:18;42.60;;;17.53;;
19673;SDS011;9986;50.610;7.230;2022-12-16T20:24:43;42.03;;;17.87;;
19673;SDS011;9986;50.610;7.230;2022-12-16T20:27:21;40.83;;;16.80;;
19673;SDS011;9986;50.610;7.230;2022-12-16T20:29:59;38.07;;;16.93;;
19673;SDS011;9986;50.610;7.230;2022-12-16T20:32:37;37.90;;;16.87;;
19673;SDS011;9986;50.610;7.230;2022-12-16T20:35:15;40.47;;;17.03;;
19673;SDS011;9986;50.610;7.230;2022-12-16T20:40:29;38.13;;;17.00;;